Time;durP1;ratioP1;P1;durP2;ratioP2;P2;SDS_P1;SDS_P2;PMS_P1;PMS_P2;Temp;Humidity;BMP_temperature;BMP_pressure;BME280_temperature;BME280_humidity;BME280_pressure;Samples;Min_cycle;Max_cycle;Signal;HPM_P1;HPM_P2
2022/04/02 01:17:42;;;;;;;;;;;;;;;;;;;;;
2022/04/02 01:39:17;;;;;;;16.63;13.47;;;;;;;6.50;57.50;97596.16;6551328;30;20237;-84
2022/04/02 01:50:31;;;;;;;16.03;12.70;;;;;;;6.50;57.70;97598.81;6524475;30;20240;-84
2022/04/02 01:53:53;;;;;;;14.40;12.90;;;;;;;6.95;57.21;97591.69;6641617;29;20221;-84
2022/04/02 01:57:29;;;;;;;14.53;13.03;;;;;;;6.66;56.96;97550.16;6785028;29;20208;-84
2022/04/02 02:04:45;;;;;;;13.67;12.10;;;;;;;6.51;57.49;97583.56;6695718;29;20217;-84
2022/04/02 02:08:08;;;;;;;13.03;11.73;;;;;;;6.29;57.89;97603.56;6721509;29;20271;-84
2022/04/02 02:15:39;;;;;;;12.30;11.00;;;;;;;6.27;57.52;97597.59;6843009;28;20828;-83
2022/04/02 02:28:42;;;;;;;;;;;;;;;;;;;;;
2022/04/02 03:07:35;;;;;;;14.53;11.77;;;;;;;6.61;57.54;97635.63;6660289;29;20224;-84
2022/04/02 03:20:25;;;;;;;15.20;11.60;;;;;;;6.87;56.72;97643.63;6649460;29;20252;-84
2022/04/02 04:38:35;;;;;;;11.77;9.83;;;;;;;5.34;59.02;97690.38;6583135;30;20240;-83
2022/04/02 04:42:32;;;;;;;19.63;10.93;;;;;;;5.90;60.04;97718.59;6643578;29;20281;-84
2022/04/02 04:47:04;;;;;;;11.97;10.27;;;;;;;6.07;59.46;97723.34;6704659;29;20222;-85
2022/04/02 04:55:19;;;;;;;13.93;10.67;;;;;;;5.69;61.30;97734.72;6583005;30;20208;-85
2022/04/02 04:58:41;;;;;;;14.20;10.67;;;;;;;6.21;60.23;97738.41;6660170;29;20243;-85
2022/04/02 05:02:03;;;;;;;22.47;12.80;;;;;;;6.08;60.08;97742.91;6739363;29;20305;-85
2022/04/02 05:05:26;;;;;;;18.23;12.83;;;;;;;5.82;61.05;97730.28;6795321;29;20334;-86
2022/04/02 05:08:48;;;;;;;18.53;11.63;;;;;;;5.97;60.72;97740.81;6792735;29;20576;-84
2022/04/02 05:12:12;;;;;;;17.67;13.10;;;;;;;5.73;60.41;97656.59;6857433;28;20265;-86
2022/04/02 05:15:34;;;;;;;14.37;12.27;;;;;;;6.35;59.46;97757.97;6907836;28;20211;-87
2022/04/02 05:18:56;;;;;;;13.93;11.13;;;;;;;5.63;60.28;97684.75;6908657;28;20234;-84
2022/04/02 05:26:28;;;;;;;13.03;11.67;;;;;;;5.48;60.45;97687.56;6904213;28;20201;-83
2022/04/02 05:30:09;;;;;;;15.53;13.00;;;;;;;6.27;60.12;97767.03;6905545;28;20235;-85
2022/04/02 05:33:37;;;;;;;14.57;11.60;;;;;;;6.10;60.05;97773.78;6902401;28;20308;-83
2022/04/02 05:37:09;;;;;;;13.77;10.97;;;;;;;5.99;60.39;97781.56;6904928;28;20218;-84
2022/04/02 05:40:30;;;;;;;17.10;10.50;;;;;;;5.77;60.93;97777.38;6903274;28;20239;-84
2022/04/02 05:43:52;;;;;;;12.50;11.20;;;;;;;5.93;60.83;97769.00;6900527;28;20211;-83
2022/04/02 05:47:15;;;;;;;12.10;10.73;;;;;;;5.98;59.90;97783.44;6905181;28;20739;-82
2022/04/02 05:50:37;;;;;;;14.33;10.60;;;;;;;5.98;59.58;97775.41;6904276;28;20235;-83
2022/04/02 05:53:59;;;;;;;12.43;10.80;;;;;;;5.90;60.60;97790.81;6904154;28;20205;-84
2022/04/02 05:57:21;;;;;;;13.60;10.83;;;;;;;6.18;60.43;97803.03;6903410;28;20207;-83
2022/04/02 06:00:42;;;;;;;12.37;10.77;;;;;;;6.12;59.56;97803.00;6903705;28;20235;-84
2022/04/02 06:04:06;;;;;;;12.03;10.53;;;;;;;5.88;60.83;97801.69;6904612;28;20442;-83
2022/04/02 06:07:27;;;;;;;14.63;12.40;;;;;;;6.18;60.79;97802.22;6903618;28;20241;-83
2022/04/02 06:10:49;;;;;;;14.93;13.30;;;;;;;6.36;60.69;97808.63;6905098;28;20220;-83
2022/04/02 06:14:13;;;;;;;16.20;12.73;;;;;;;6.40;60.13;97772.41;6905252;28;20204;-82
2022/04/02 06:17:34;;;;;;;13.80;12.20;;;;;;;6.22;60.35;97806.13;6904244;28;20296;-83
2022/04/02 06:21:02;;;;;;;12.40;11.20;;;;;;;6.28;60.48;97800.81;6905032;28;20222;-82
2022/04/02 06:24:24;;;;;;;12.47;10.87;;;;;;;5.98;60.62;97804.00;6903331;28;20680;-82
2022/04/02 06:27:47;;;;;;;13.17;11.33;;;;;;;6.25;60.30;97821.78;6902832;28;20268;-84
2022/04/02 06:31:09;;;;;;;13.20;11.50;;;;;;;6.04;60.09;97787.97;6903524;28;20225;-83
2022/04/02 06:38:13;;;;;;;11.87;10.63;;;;;;;5.89;60.12;97829.28;6864505;28;20244;-82
2022/04/02 06:41:34;;;;;;;12.13;10.10;;;;;;;6.03;59.50;97825.63;6901173;28;20225;-82
2022/04/02 06:44:56;;;;;;;9.90;8.93;;;;;;;6.46;58.64;97845.72;6900530;28;20219;-84
2022/04/02 06:48:18;;;;;;;10.77;9.50;;;;;;;6.55;58.84;97850.69;6911271;28;20246;-81
2022/04/02 06:52:14;;;;;;;10.03;8.60;;;;;;;6.46;58.22;97856.44;6928479;28;20222;-82
2022/04/02 06:59:38;;;;;;;9.37;8.20;;;;;;;6.09;58.52;97856.94;6915012;28;20264;-82
2022/04/02 07:03:00;;;;;;;9.13;8.23;;;;;;;6.36;58.66;97862.16;6928042;28;20206;-82
2022/04/02 07:07:00;;;;;;;8.43;7.67;;;;;;;6.64;57.90;97870.06;6907202;28;20654;-82
2022/04/02 07:10:22;;;;;;;9.03;7.90;;;;;;;6.05;58.22;97885.94;6903571;28;20227;-83
2022/04/02 07:13:45;;;;;;;9.20;8.17;;;;;;;5.86;58.97;97867.97;6917855;28;20210;-84
2022/04/02 07:17:06;;;;;;;10.87;8.57;;;;;;;6.13;58.54;97875.06;6891675;28;20295;-84
2022/04/02 07:20:44;;;;;;;9.03;8.13;;;;;;;6.33;57.34;97889.34;6893197;28;20239;-82
2022/04/02 07:24:07;;;;;;;7.87;6.83;;;;;;;6.66;56.22;97894.81;6904639;28;20266;-82
2022/04/02 07:27:30;;;;;;;9.57;8.53;;;;;;;6.84;56.54;97871.75;6904643;28;20237;-84
2022/04/02 07:30:53;;;;;;;9.73;8.60;;;;;;;7.00;56.19;97902.69;6906524;28;20221;-81
2022/04/02 07:34:15;;;;;;;9.50;8.53;;;;;;;6.92;56.61;97914.44;6905759;28;20243;-81
2022/04/02 07:42:07;;;;;;;12.03;8.50;;;;;;;6.77;55.28;97919.13;6931707;28;20208;-82
2022/04/02 07:45:32;;;;;;;8.87;8.07;;;;;;;6.47;57.05;97904.44;6933180;28;20214;-82
2022/04/02 07:48:57;;;;;;;10.00;8.30;;;;;;;6.57;56.11;97906.72;6932560;28;20244;-83
2022/04/02 07:52:19;;;;;;;9.87;8.07;;;;;;;6.48;56.56;97938.19;6933703;28;20219;-82
2022/04/02 07:55:42;;;;;;;13.53;9.30;;;;;;;6.55;57.36;97916.81;6934070;28;20723;-82
2022/04/02 07:59:08;;;;;;;11.70;9.50;;;;;;;6.50;58.30;97946.03;6934280;28;20224;-82
2022/04/02 08:02:38;;;;;;;9.77;7.87;;;;;;;6.65;56.88;97949.38;6935070;28;20257;-85
2022/04/02 08:06:02;;;;;;;9.57;7.37;;;;;;;6.43;56.85;97946.00;6933382;28;20195;-82
2022/04/02 08:09:26;;;;;;;12.13;7.67;;;;;;;5.82;55.94;97946.94;6934533;28;20688;-82
2022/04/02 08:12:48;;;;;;;8.50;7.70;;;;;;;5.72;56.73;97954.41;6934178;28;20217;-83
2022/04/02 08:16:10;;;;;;;7.93;7.23;;;;;;;5.45;57.96;97941.06;6934917;28;20212;-82
2022/04/02 08:19:33;;;;;;;8.77;7.87;;;;;;;5.95;57.19;97968.41;6934967;28;20313;-81
2022/04/02 08:23:17;;;;;;;8.13;7.33;;;;;;;6.35;56.24;97980.97;6933856;28;20221;-82
2022/04/02 08:26:53;;;;;;;10.27;8.10;;;;;;;6.57;56.24;97974.50;6931088;28;20696;-82
2022/04/02 08:30:17;;;;;;;9.27;7.80;;;;;;;6.31;56.70;97990.41;6933944;28;20320;-82
2022/04/02 08:33:44;;;;;;;8.20;6.80;;;;;;;6.24;55.47;97994.91;6933629;28;20220;-84
2022/04/02 08:37:17;;;;;;;8.03;6.63;;;;;;;5.57;56.62;97984.97;6933077;28;20831;-82
2022/04/02 08:40:53;;;;;;;10.37;7.70;;;;;;;6.16;56.74;97979.03;6933043;28;20241;-83
2022/04/02 08:44:55;;;;;;;9.33;6.73;;;;;;;5.34;58.40;98022.59;6929538;28;20209;-85
2022/04/02 08:48:24;;;;;;;8.27;7.13;;;;;;;5.56;57.28;98010.03;6930567;28;20240;-85
2022/04/02 08:51:50;;;;;;;10.03;6.60;;;;;;;5.62;55.85;98012.78;6932108;28;20683;-83
2022/04/02 08:55:15;;;;;;;7.80;7.07;;;;;;;6.22;56.74;98021.06;6933584;28;20194;-83
2022/04/02 08:58:58;;;;;;;8.20;7.40;;;;;;;6.37;55.97;98037.81;6931337;28;20236;-85
2022/04/02 09:02:38;;;;;;;9.23;7.40;;;;;;;6.27;56.80;98047.22;6932338;28;20225;-83
2022/04/02 09:06:30;;;;;;;7.03;6.27;;;;;;;5.82;54.90;98032.50;6931528;28;20207;-84
2022/04/02 09:10:23;;;;;;;9.73;7.70;;;;;;;6.44;56.52;98044.06;6927783;28;20242;-83
2022/04/02 09:14:11;;;;;;;9.23;7.50;;;;;;;6.04;55.54;98031.44;6931760;28;20216;-83
2022/04/02 09:17:37;;;;;;;8.80;5.87;;;;;;;5.78;55.37;98022.38;6928971;28;20212;-82
2022/04/02 09:21:03;;;;;;;8.40;7.53;;;;;;;6.75;55.62;98049.78;6932528;28;20249;-84
2022/04/02 09:24:42;;;;;;;7.47;6.77;;;;;;;5.87;53.89;98066.69;6931922;28;20220;-84
2022/04/02 09:28:40;;;;;;;7.70;7.00;;;;;;;5.91;56.53;98063.47;6931495;28;20240;-83
2022/04/02 09:32:39;;;;;;;9.60;8.60;;;;;;;6.02;55.68;98068.25;6932211;28;20218;-83
2022/04/02 09:36:41;;;;;;;8.40;7.57;;;;;;;5.87;54.98;97987.28;6930698;28;20240;-83
2022/04/02 09:40:04;;;;;;;8.60;7.80;;;;;;;6.81;55.56;98074.91;6927315;28;20237;-84
2022/04/02 09:43:28;;;;;;;9.03;8.17;;;;;;;6.35;54.43;98057.78;6932921;28;20218;-84
2022/04/02 09:47:05;;;;;;;8.17;7.37;;;;;;;6.18;53.63;98086.69;6933383;28;20208;-83
2022/04/02 09:50:29;;;;;;;8.13;7.40;;;;;;;5.47;55.32;98097.56;6932657;28;20238;-83
2022/04/02 09:54:14;;;;;;;8.70;7.90;;;;;;;5.96;55.28;98074.38;6933875;28;20210;-82
2022/04/02 10:02:04;;;;;;;10.83;8.73;;;;;;;6.12;56.32;98033.97;6920756;28;20204;-85
2022/04/02 10:05:57;;;;;;;10.80;9.10;;;;;;;6.31;54.69;98094.81;6932671;28;20210;-83
2022/04/02 10:13:35;;;;;;;11.53;8.57;;;;;;;6.51;54.94;98109.19;6888580;28;20298;-83
2022/04/02 10:17:03;;;;;;;11.60;8.73;;;;;;;6.42;56.00;98113.00;6932641;28;20224;-83
2022/04/02 10:20:28;;;;;;;10.00;9.10;;;;;;;6.76;55.78;98120.22;6932771;28;20231;-83
2022/04/02 10:23:53;;;;;;;10.50;8.43;;;;;;;6.09;55.27;98117.31;6933126;28;20205;-83
2022/04/02 10:31:16;;;;;;;10.00;9.00;;;;;;;6.55;55.57;98110.41;6922192;28;20243;-84
2022/04/02 10:35:13;;;;;;;9.63;8.47;;;;;;;6.12;54.99;98121.44;6925721;28;20209;-83
2022/04/02 10:39:05;;;;;;;10.30;9.30;;;;;;;6.18;55.48;98124.16;6786947;29;20235;-83
2022/04/02 10:46:33;;;;;;;9.67;8.67;;;;;;;5.33;55.60;98125.19;6908250;28;20283;-85
2022/04/02 10:50:01;;;;;;;8.33;7.53;;;;;;;5.66;54.75;98130.88;6919358;28;20233;-85
2022/04/02 10:53:27;;;;;;;12.93;9.10;;;;;;;5.89;56.27;98143.06;6922890;28;20209;-82
2022/04/02 10:56:50;;;;;;;9.40;8.47;;;;;;;5.41;55.78;98110.84;6931351;28;20202;-84
2022/04/02 11:00:12;;;;;;;9.53;8.63;;;;;;;5.56;55.00;98125.00;6932413;28;20231;-84
2022/04/02 11:03:39;;;;;;;9.90;9.00;;;;;;;5.59;56.43;98089.84;6932439;28;20204;-83
2022/04/02 11:07:01;;;;;;;10.77;9.67;;;;;;;5.59;55.36;98076.47;6931756;28;20204;-83
2022/04/02 11:10:23;;;;;;;9.83;8.93;;;;;;;5.69;55.80;98123.28;6932034;28;20242;-83
2022/04/02 11:13:46;;;;;;;11.40;10.20;;;;;;;6.13;56.82;98164.06;6933116;28;20213;-83
2022/04/02 11:17:08;;;;;;;10.93;9.83;;;;;;;5.74;55.48;98144.94;6930461;28;20208;-83
2022/04/02 11:20:39;;;;;;;12.77;10.20;;;;;;;6.31;55.21;98145.69;6931358;28;20235;-83
2022/04/02 11:24:03;;;;;;;11.93;10.47;;;;;;;5.89;54.85;98164.44;6930910;28;20220;-83
2022/04/02 11:27:29;;;;;;;12.17;10.37;;;;;;;6.53;54.07;98168.72;6929830;28;20216;-83
2022/04/02 11:34:44;;;;;;;13.50;11.20;;;;;;;5.88;55.40;98196.75;6931554;28;20208;-82
2022/04/02 11:38:12;;;;;;;10.93;9.83;;;;;;;6.38;54.73;98188.56;6930216;28;20349;-82
2022/04/02 11:41:36;;;;;;;14.47;10.63;;;;;;;5.77;54.43;98149.91;6932012;28;20207;-82
2022/04/02 11:44:58;;;;;;;11.90;10.70;;;;;;;6.53;54.09;98192.81;6931508;28;20212;-80
2022/04/02 11:48:30;;;;;;;11.60;10.50;;;;;;;6.47;53.52;98206.97;6931248;28;20235;-82
2022/04/02 11:52:01;;;;;;;11.37;10.17;;;;;;;4.62;57.14;98223.03;6930639;28;20220;-82
2022/04/02 11:55:23;;;;;;;13.70;12.27;;;;;;;5.20;56.26;98221.19;6926899;28;20213;-84
2022/04/02 11:58:47;;;;;;;12.10;10.07;;;;;;;5.44;55.46;98220.06;6928762;28;20384;-83
2022/04/02 12:02:08;;;;;;;11.57;10.40;;;;;;;4.86;57.10;98218.28;6929131;28;20220;-83
2022/04/02 12:10:42;;;;;;;12.27;11.00;;;;;;;5.86;55.86;98223.69;6930920;28;20375;-84
2022/04/02 12:14:14;;;;;;;11.97;10.77;;;;;;;6.35;55.56;98232.63;6930810;28;20211;-83
2022/04/02 12:17:47;;;;;;;15.70;12.87;;;;;;;6.62;55.91;98229.16;6936127;28;20762;-83
2022/04/02 12:21:11;;;;;;;13.13;11.57;;;;;;;6.83;55.32;98225.59;6935435;28;20217;-83
2022/04/02 12:24:39;;;;;;;14.80;11.17;;;;;;;6.57;54.26;98236.09;6934974;28;20215;-83
2022/04/02 12:28:10;;;;;;;14.40;11.07;;;;;;;7.03;53.34;98232.75;6933597;28;20230;-83
2022/04/02 12:31:34;;;;;;;13.30;11.90;;;;;;;6.85;53.14;98237.75;6933230;28;20289;-81
2022/04/02 12:35:05;;;;;;;13.40;12.10;;;;;;;5.86;57.31;98249.59;6926822;28;20219;-82
2022/04/02 12:38:30;;;;;;;13.70;12.37;;;;;;;6.22;56.57;98264.63;6933094;28;20235;-84
2022/04/02 12:41:51;;;;;;;14.70;13.20;;;;;;;6.56;55.05;98262.06;6934914;28;20294;-83
2022/04/02 12:45:17;;;;;;;15.90;12.87;;;;;;;6.10;55.85;98252.75;6936492;28;20222;-84
2022/04/02 12:48:43;;;;;;;14.30;12.80;;;;;;;5.82;56.89;98275.91;6937117;28;20287;-85
2022/04/02 12:52:20;;;;;;;17.43;14.33;;;;;;;6.56;57.08;98267.41;6938681;28;20270;-82
2022/04/02 12:55:50;;;;;;;16.17;14.47;;;;;;;6.08;56.53;98219.19;6936819;28;20259;-82
2022/04/02 12:59:18;;;;;;;16.73;14.93;;;;;;;6.67;56.92;98280.25;6937561;28;20719;-84
2022/04/02 13:02:41;;;;;;;15.67;12.63;;;;;;;6.09;55.50;98269.84;6937568;28;20269;-82
2022/04/02 13:06:10;;;;;;;15.50;13.07;;;;;;;6.14;56.82;98277.28;6937228;28;20218;-82
2022/04/02 13:09:33;;;;;;;15.33;13.57;;;;;;;6.46;55.41;98288.34;6935886;28;20258;-82
2022/04/02 13:12:59;;;;;;;15.83;13.00;;;;;;;6.32;56.50;98299.91;6935765;28;20235;-82
2022/04/02 13:16:21;;;;;;;15.57;11.90;;;;;;;6.12;55.92;98306.91;6936135;28;20216;-83
2022/04/02 13:24:14;;;;;;;15.13;13.63;;;;;;;6.52;57.00;98303.63;6937596;28;20210;-81
2022/04/02 13:28:17;;;;;;;16.17;13.83;;;;;;;6.42;56.77;98303.09;6934505;28;20644;-81
2022/04/02 13:31:59;;;;;;;16.87;14.50;;;;;;;6.01;57.33;98323.47;6937373;28;20227;-81
2022/04/02 13:35:35;;;;;;;15.83;13.87;;;;;;;6.72;55.99;98309.97;6937413;28;20184;-81
2022/04/02 13:38:58;;;;;;;13.83;11.87;;;;;;;6.06;57.15;98325.56;6938811;28;20421;-81
2022/04/02 13:42:28;;;;;;;15.20;13.60;;;;;;;6.75;57.31;98323.00;6938355;28;20210;-81
2022/04/02 13:45:56;;;;;;;16.67;13.33;;;;;;;5.99;56.29;98231.84;6938120;28;20749;-81
2022/04/02 13:49:28;;;;;;;15.50;13.90;;;;;;;6.11;58.86;98299.06;6939662;28;20231;-81
2022/04/02 13:53:04;;;;;;;17.73;14.07;;;;;;;6.04;59.47;98323.09;6939830;28;20252;-81
2022/04/02 13:56:32;;;;;;;18.30;15.37;;;;;;;6.08;58.91;98336.94;6933332;28;20288;-82
2022/04/02 14:00:05;;;;;;;13.50;11.67;;;;;;;5.95;56.97;98340.25;6937502;28;20827;-83
2022/04/02 14:03:27;;;;;;;16.17;12.07;;;;;;;6.18;56.51;98321.41;6936733;28;20736;-82
2022/04/02 14:06:53;;;;;;;12.63;11.40;;;;;;;6.49;56.35;98348.72;6935830;28;20240;-84
2022/04/02 14:10:16;;;;;;;14.57;12.13;;;;;;;6.67;55.73;98347.22;6936088;28;20244;-82
2022/04/02 14:14:04;;;;;;;14.13;11.63;;;;;;;6.84;54.26;98345.94;6935300;28;20211;-82
2022/04/02 14:17:29;;;;;;;13.73;12.33;;;;;;;6.45;54.78;98317.97;6900778;28;20230;-81
2022/04/02 14:20:54;;;;;;;13.50;12.10;;;;;;;6.42;54.91;98337.91;6934465;28;20204;-81
2022/04/02 14:24:21;;;;;;;14.13;12.47;;;;;;;6.51;55.52;98354.69;6936658;28;20211;-81
2022/04/02 14:28:22;;;;;;;14.53;13.03;;;;;;;6.39;55.84;98346.34;6933083;28;20207;-83
2022/04/02 14:32:25;;;;;;;13.53;12.23;;;;;;;6.71;56.00;98351.19;6937133;28;20234;-83
2022/04/02 14:36:26;;;;;;;14.97;12.50;;;;;;;6.69;55.46;98331.81;6932750;28;20202;-83
2022/04/02 14:40:14;;;;;;;16.90;14.83;;;;;;;7.08;55.80;98353.56;6932750;28;20260;-82
2022/04/02 14:44:11;;;;;;;17.50;14.10;;;;;;;7.28;56.09;98362.59;6907475;28;20219;-82
2022/04/02 14:48:14;;;;;;;15.90;13.23;;;;;;;7.03;56.73;98364.06;6935528;28;20217;-82
2022/04/02 14:52:20;;;;;;;16.00;13.00;;;;;;;6.00;55.64;98366.44;6936370;28;20240;-81
2022/04/02 14:56:10;;;;;;;17.70;13.57;;;;;;;6.11;58.14;98366.81;6935404;28;20221;-83
2022/04/02 15:00:14;;;;;;;15.40;13.67;;;;;;;6.50;57.15;98375.31;6935362;28;20231;-84
2022/04/02 15:04:13;;;;;;;15.93;12.80;;;;;;;6.80;56.04;98376.00;6935018;28;20264;-83
2022/04/02 15:08:06;;;;;;;16.37;14.67;;;;;;;7.03;55.16;98377.47;6931184;28;20292;-83
2022/04/02 15:11:31;;;;;;;13.63;12.20;;;;;;;6.54;54.56;98375.75;6932473;28;20233;-83
2022/04/02 15:14:58;;;;;;;14.60;13.10;;;;;;;7.07;54.73;98384.06;6931088;28;20820;-84
2022/04/02 15:18:24;;;;;;;15.43;13.03;;;;;;;6.47;55.26;98362.28;6933018;28;20228;-82
2022/04/02 15:25:31;;;;;;;18.60;15.07;;;;;;;6.70;57.29;98397.75;6935283;28;20201;-82
2022/04/02 15:29:07;;;;;;;17.37;14.23;;;;;;;6.01;56.94;98410.94;6933593;28;20719;-81
2022/04/02 15:32:50;;;;;;;18.17;15.63;;;;;;;6.41;56.71;98419.25;6935761;28;20231;-81
2022/04/02 15:36:23;;;;;;;21.13;15.43;;;;;;;6.68;56.89;98415.03;6934355;28;20738;-81
2022/04/02 15:39:50;;;;;;;26.40;21.33;;;;;;;6.60;57.39;98362.41;6933758;28;20239;-82
2022/04/02 15:43:23;;;;;;;17.53;15.73;;;;;;;6.55;57.48;98431.78;6939481;28;20707;-82
2022/04/02 15:46:47;;;;;;;21.93;16.33;;;;;;;6.38;57.39;98441.03;6939378;28;20214;-81
2022/04/02 15:50:12;;;;;;;18.57;15.83;;;;;;;6.29;57.41;98450.22;6940922;28;20240;-81
2022/04/02 15:53:34;;;;;;;20.43;15.80;;;;;;;6.15;57.51;98451.06;6941027;28;20262;-81
2022/04/02 15:57:09;;;;;;;22.03;19.13;;;;;;;6.53;56.81;98411.56;6937411;28;20215;-84
2022/04/02 16:00:30;;;;;;;18.43;16.50;;;;;;;6.55;56.59;98441.66;6939344;28;20238;-82
2022/04/02 16:03:53;;;;;;;20.33;18.07;;;;;;;6.80;56.83;98453.69;6937373;28;20208;-83
2022/04/02 16:07:27;;;;;;;18.40;16.23;;;;;;;6.77;55.91;98456.75;6936789;28;20219;-84
2022/04/02 16:11:31;;;;;;;19.70;16.53;;;;;;;5.67;58.91;98459.59;6937208;28;20234;-83
2022/04/02 16:14:53;;;;;;;24.37;20.10;;;;;;;6.75;57.94;98446.22;6936444;28;20195;-83
2022/04/02 16:18:25;;;;;;;23.00;17.57;;;;;;;6.69;57.36;98465.75;6933917;28;20231;-84
2022/04/02 16:21:50;;;;;;;22.80;20.00;;;;;;;6.66;56.84;98441.19;6935641;28;20203;-81
2022/04/02 16:25:13;;;;;;;19.17;17.13;;;;;;;6.13;57.20;98482.53;6937275;28;20261;-83
2022/04/02 16:28:36;;;;;;;18.90;16.73;;;;;;;6.68;55.87;98452.53;6935629;28;20238;-82
2022/04/02 16:31:59;;;;;;;21.00;16.87;;;;;;;6.93;56.12;98476.09;6937802;28;20295;-82
2022/04/02 16:35:23;;;;;;;19.07;17.03;;;;;;;6.93;57.04;98475.25;6937669;28;20262;-82
2022/04/02 16:38:56;;;;;;;25.70;19.27;;;;;;;7.32;57.61;98475.66;6935537;28;20269;-82
2022/04/02 16:42:23;;;;;;;27.77;20.60;;;;;;;7.15;57.65;98480.47;6938378;28;20678;-82
2022/04/02 16:46:07;;;;;;;23.63;18.57;;;;;;;6.81;57.82;98501.75;6937098;28;20581;-82
2022/04/02 16:49:29;;;;;;;24.33;19.90;;;;;;;7.27;57.10;98492.34;6938613;28;20230;-82
2022/04/02 16:52:52;;;;;;;19.63;16.47;;;;;;;6.75;57.78;98510.53;6935330;28;20215;-84
2022/04/02 16:56:15;;;;;;;25.87;18.20;;;;;;;6.37;58.25;98458.13;6934505;28;20204;-81
2022/04/02 16:59:37;;;;;;;24.37;20.57;;;;;;;6.90;58.11;98499.78;6938147;28;20252;-82
2022/04/02 17:03:02;;;;;;;23.27;18.93;;;;;;;6.68;58.47;98525.69;6938373;28;20245;-82
2022/04/02 17:06:40;;;;;;;19.70;16.63;;;;;;;5.78;59.52;98487.75;6937402;28;20324;-82
2022/04/02 17:10:05;;;;;;;18.27;15.73;;;;;;;6.14;59.23;98531.53;6936198;28;20236;-82
2022/04/02 17:13:28;;;;;;;21.27;17.90;;;;;;;6.37;58.64;98521.56;6937169;28;20302;-82
2022/04/02 17:16:51;;;;;;;25.60;19.70;;;;;;;6.78;58.94;98544.97;6935387;28;20210;-82
2022/04/02 17:20:26;;;;;;;25.80;19.17;;;;;;;6.32;60.40;98553.41;6938519;28;20312;-82
2022/04/02 17:23:48;;;;;;;25.57;20.83;;;;;;;6.75;60.23;98548.03;6937232;28;20208;-82
2022/04/02 17:27:18;;;;;;;35.87;26.43;;;;;;;6.87;60.27;98557.25;6934166;28;20211;-82
2022/04/02 17:30:47;;;;;;;21.60;18.67;;;;;;;6.44;60.36;98555.47;6936172;28;20622;-82
2022/04/02 17:34:19;;;;;;;25.73;20.53;;;;;;;6.61;60.44;98567.63;6936256;28;20217;-84
2022/04/02 17:37:43;;;;;;;24.97;19.03;;;;;;;6.02;61.26;98552.56;6935497;28;20237;-83
2022/04/02 17:41:13;;;;;;;21.53;17.63;;;;;;;6.18;60.64;98575.66;6935567;28;20225;-82
2022/04/02 17:44:41;;;;;;;20.30;17.83;;;;;;;6.12;60.53;98587.91;6936091;28;20292;-83
2022/04/02 17:48:25;;;;;;;23.67;19.17;;;;;;;6.45;59.57;98594.59;6935432;28;20258;-83
2022/04/02 17:51:52;;;;;;;21.73;19.03;;;;;;;6.33;60.20;98596.06;6935431;28;20294;-83
2022/04/02 17:55:28;;;;;;;26.57;21.07;;;;;;;6.00;59.63;98521.63;6935593;28;20204;-82
2022/04/02 17:58:53;;;;;;;24.03;19.70;;;;;;;6.22;60.16;98601.03;6935304;28;20230;-83
2022/04/02 18:02:16;;;;;;;26.20;21.77;;;;;;;6.42;60.40;98616.38;6934254;28;20639;-83
2022/04/02 18:05:43;;;;;;;31.40;22.03;;;;;;;6.64;59.60;98614.63;6935747;28;20207;-82
2022/04/02 18:09:05;;;;;;;29.30;23.17;;;;;;;6.56;60.14;98623.59;6934865;28;20224;-84
2022/04/02 18:12:29;;;;;;;26.43;20.57;;;;;;;6.73;60.22;98624.25;6934918;28;20313;-82
2022/04/02 18:15:51;;;;;;;29.33;20.43;;;;;;;6.75;60.24;98631.09;6927166;28;20218;-84
2022/04/02 18:19:12;;;;;;;28.63;23.73;;;;;;;6.43;60.45;98620.72;6925065;28;20235;-84
2022/04/02 18:22:38;;;;;;;21.27;17.53;;;;;;;6.61;60.15;98639.94;6925243;28;20206;-84
2022/04/02 18:26:00;;;;;;;23.40;17.47;;;;;;;6.72;59.99;98636.00;6924569;28;20272;-84
2022/04/02 18:29:22;;;;;;;20.30;16.83;;;;;;;6.14;59.43;98564.47;6924340;28;20305;-84
2022/04/02 18:32:45;;;;;;;23.77;16.13;;;;;;;6.45;59.68;98636.59;6925746;28;20615;-84
2022/04/02 18:36:07;;;;;;;20.57;16.77;;;;;;;6.50;60.01;98624.34;6925259;28;20334;-83
2022/04/02 18:39:30;;;;;;;23.67;19.20;;;;;;;6.55;60.18;98658.59;6933679;28;20840;-83
2022/04/02 18:42:52;;;;;;;23.97;18.03;;;;;;;6.64;59.65;98663.69;6933871;28;20214;-85
2022/04/02 18:46:14;;;;;;;21.83;16.50;;;;;;;6.30;60.92;98654.50;6932791;28;20214;-82
2022/04/02 18:49:36;;;;;;;25.03;17.53;;;;;;;6.24;61.39;98669.44;6933533;28;20230;-84
2022/04/02 18:52:58;;;;;;;24.90;17.73;;;;;;;6.41;60.80;98657.56;6936281;28;20230;-82
2022/04/02 18:56:22;;;;;;;21.13;16.33;;;;;;;6.36;61.03;98651.91;6935590;28;20216;-84
2022/04/02 19:00:14;;;;;;;23.27;19.52;;;;;;;6.70;60.79;98683.53;6932906;28;20928;-83
2022/04/02 19:03:40;;;;;;;21.20;17.67;;;;;;;6.55;60.77;98688.06;6922736;28;20209;-83
2022/04/02 19:07:17;;;;;;;23.83;16.53;;;;;;;6.76;60.38;98698.88;6926538;28;20211;-83
2022/04/02 19:10:44;;;;;;;21.37;17.47;;;;;;;6.57;60.62;98694.91;6934082;28;20323;-85
2022/04/02 19:14:07;;;;;;;24.00;18.20;;;;;;;6.42;60.97;98669.94;6933371;28;20206;-85
2022/04/02 19:17:29;;;;;;;23.13;17.67;;;;;;;6.47;61.32;98696.16;6929070;28;20210;-83
2022/04/02 19:20:51;;;;;;;20.70;17.43;;;;;;;6.63;60.89;98715.59;6939413;28;20584;-83
2022/04/02 19:24:12;;;;;;;22.47;19.00;;;;;;;6.30;61.41;98722.25;6939080;28;20219;-84
2022/04/02 19:27:34;;;;;;;20.23;17.13;;;;;;;6.26;61.45;98709.41;6937822;28;20211;-84
2022/04/02 19:30:58;;;;;;;22.67;17.47;;;;;;;6.47;61.30;98730.97;6940883;28;20338;-83
2022/04/02 19:34:19;;;;;;;22.43;18.63;;;;;;;6.24;61.22;98706.91;6938057;28;20242;-83
2022/04/02 19:37:43;;;;;;;21.80;17.47;;;;;;;6.42;60.95;98707.41;6936744;28;20213;-85
2022/04/02 19:41:06;;;;;;;21.50;17.50;;;;;;;6.38;61.41;98700.75;6936366;28;20212;-84
2022/04/02 19:44:28;;;;;;;23.83;17.23;;;;;;;6.43;61.21;98743.88;6936134;28;20214;-84
2022/04/02 19:47:51;;;;;;;22.47;18.33;;;;;;;6.51;61.42;98734.97;6937126;28;20230;-84
2022/04/02 19:51:13;;;;;;;20.53;17.03;;;;;;;6.38;61.74;98732.06;6936755;28;20238;-83
2022/04/02 19:54:35;;;;;;;21.93;17.07;;;;;;;6.24;62.00;98744.38;6935774;28;20280;-83
2022/04/02 19:57:57;;;;;;;22.40;18.30;;;;;;;6.42;61.56;98752.13;6935763;28;20233;-83
2022/04/02 20:01:19;;;;;;;26.27;19.57;;;;;;;6.17;61.02;98683.72;6936540;28;20207;-83
2022/04/02 20:04:42;;;;;;;23.17;18.83;;;;;;;6.09;61.92;98721.25;6937071;28;20219;-84
2022/04/02 20:08:05;;;;;;;25.83;17.77;;;;;;;6.33;61.97;98747.84;6935246;28;20257;-84
2022/04/02 20:11:27;;;;;;;24.67;19.00;;;;;;;6.46;61.62;98748.91;6936369;28;20223;-84
2022/04/02 20:14:49;;;;;;;24.87;18.30;;;;;;;6.48;62.21;98727.31;6935912;28;20212;-84
2022/04/02 20:18:11;;;;;;;26.43;20.13;;;;;;;6.22;62.03;98751.78;6933185;28;20691;-88
2022/04/02 20:21:43;;;;;;;30.47;21.63;;;;;;;6.40;61.89;98763.00;6936910;28;20310;-86
2022/04/02 20:25:08;;;;;;;25.77;21.50;;;;;;;6.56;61.84;98743.28;6933615;28;20632;-84
2022/04/02 20:28:33;;;;;;;21.17;16.23;;;;;;;6.53;60.86;98752.53;6934822;28;20441;-85
2022/04/02 20:31:55;;;;;;;27.93;22.30;;;;;;;6.61;61.17;98762.34;6929860;28;20219;-84
2022/04/02 20:35:17;;;;;;;21.63;19.13;;;;;;;6.46;60.51;98738.19;6939469;28;20218;-85
2022/04/02 20:38:40;;;;;;;21.83;18.57;;;;;;;6.73;61.20;98771.59;6889824;28;1190951;-85
2022/04/02 20:42:02;;;;;;;22.23;19.13;;;;;;;6.39;61.50;98771.22;6942435;28;20217;-85
2022/04/02 20:45:24;;;;;;;26.10;18.53;;;;;;;6.56;61.37;98760.22;6940062;28;20210;-86
2022/04/02 20:48:46;;;;;;;54.07;38.70;;;;;;;6.52;61.11;98777.63;6939776;28;20224;-85
2022/04/02 20:52:08;;;;;;;31.40;26.53;;;;;;;6.41;61.34;98780.75;6938954;28;20230;-85
2022/04/02 20:55:31;;;;;;;18.37;16.40;;;;;;;6.54;61.42;98764.88;6940439;28;20269;-85
2022/04/02 20:58:53;;;;;;;19.27;16.17;;;;;;;6.67;60.93;98783.03;6939930;28;20228;-83
2022/04/02 21:02:14;;;;;;;23.03;19.10;;;;;;;6.29;61.39;98768.78;6940107;28;20212;-84
2022/04/02 21:05:36;;;;;;;22.03;18.00;;;;;;;6.49;61.37;98777.97;6939411;28;20235;-85
2022/04/02 21:08:58;;;;;;;22.47;17.90;;;;;;;6.71;60.90;98798.56;6929805;28;20270;-84
2022/04/02 21:12:21;;;;;;;24.87;19.97;;;;;;;6.66;60.96;98782.19;6939391;28;20228;-86
2022/04/02 21:15:43;;;;;;;21.03;17.47;;;;;;;6.75;60.49;98791.84;6937022;28;20767;-84